KBVX

Batesville Regional Airport

Batesville, Arkansas, USA
METAR KBVX 170756Z AUTO 19003KT 6SM -RA BR BKN050 OVC060 06/05 A3013 RMK AO2 SLP204 P0016 T00610050
Observed Flight Rules
Dec-17 @ 07:56 UTC (22 minutes ago) Visual Flight Rules
Wind Visibility Clouds Conditions
190° at 3 knots 6 miles
  • Broken at 5,000' AGL
  • Overcast at 6,000' AGL
  • Light Rain
  • Mist
Temperatures Readings Precipitation
Current 6°C / 43°F
Dewpoint 5°C / 41°F
Humidity 93%
Altimeter 30.13" Hg
Pressure 1020.4 hPa
Elevation 141
Current Rain 0.16
METAR KBVX 170756Z AUTO 19003KT 6SM -RA BR BKN050 OVC060 06/05 A3013 RMK AO2 SLP204 P0016 T00610050
Observed Flight Rules
Dec-17 @ 07:56 UTC
(22 minutes ago)
VFR
Wind Visibility
190° at 3 knots 6 miles
Clouds
  • Broken at 5,000' AGL
  • Overcast at 6,000' AGL
Conditions
  • Light Rain
  • Mist
Temperature Dewpoint
6°C / 43°F 5°C / 41°F
Humidity Altimeter Pressure
93% 30.13" Hg 1020.4 hPa
Current Rain
0.16